Aérodrome :
LOGIN :

S'inscrire | Disclaimer

   EN    FR    IT 

 










Légende :    VFR   VFR Marginal   IFR   IFR Intensif   IFR Très Intensif
Visi : 
Plafond : 
>= 8 km
>= 3000ft
5 à 8 km
1000 à 3000 ft
1500m à 5 km
500 à 1000 ft
800 à 1500m
200 à 500 ft
< 800m
< 200 ft
Symboles :   Orages  Brouillard  Fortes neiges  Fortes précipitations  Vent > 20 kt
SIGMETs :   Divers  Orages  Givrage  Turbulence  Onde Orograph.  Cendres Volcan.






- Altitude de l'aérodrome : 219 ft
- Code IATA : TAY


EETU - Ulenurme

DERNIER METAR :
  • 270150Z 07010KT 9999 OVC004 M00/M01 Q0993

METARs EXPIRÉS :
  • 270050Z 06009KT 9999 -SN OVC005 M00/M01 Q0993
  • 262350Z 07011KT 9999 -SN OVC003 M00/M00 Q0993

TAF TAF EETU
Valide du 26 à 22h jusqu'au 27 à 04h UTC


262100Z 2622/2704 06009KT 6000 BKN003 OVC005
TEMPO 2622/2701 2000 SNSG -FZDZ
BECMG 2701/2702 BKN004 BKN010



MET'MAP, la Météo Aéronautique d'un coup d'oeil ! - Copyright ORBIFLY Décembre 2007 - Disclaimer

ORBIFLY MET'MAP TEAM :

Programmation & Développement : Alexandra Zaïnal
Sur une idée originale de : Baudouin d'Aumeries
Assistance à la programmation : Marc-Olivier Méhu
Soutien technique & logistique : Manuel Goepfert

Contact : metmap@orbifly.com




SOURCES & CREDITS :

   NOAA